createdAt,value
2018-03-16T00:02:24.252Z,17.00
2018-03-16T00:04:50.463Z,18.50
2018-03-16T00:07:17.390Z,18.87
2018-03-16T00:09:44.321Z,20.00
2018-03-16T00:12:12.284Z,19.47
2018-03-16T00:14:38.449Z,20.20
2018-03-16T00:17:04.529Z,20.40
2018-03-16T00:19:30.775Z,18.57
2018-03-16T00:21:57.033Z,17.97
2018-03-16T00:24:23.124Z,17.93
2018-03-16T00:26:49.329Z,17.80
2018-03-16T00:29:15.496Z,19.03
2018-03-16T00:31:42.506Z,17.67
2018-03-16T00:34:08.755Z,17.07
2018-03-16T00:36:35.084Z,18.60
2018-03-16T00:39:01.624Z,18.90
2018-03-16T00:41:27.836Z,18.03
2018-03-16T00:43:54.042Z,19.00
2018-03-16T00:46:20.194Z,20.17
2018-03-16T00:48:46.399Z,19.93
2018-03-16T00:51:12.448Z,18.50
2018-03-16T00:53:38.668Z,18.03
2018-03-16T00:56:05.202Z,19.90
2018-03-16T00:58:31.346Z,18.90
2018-03-16T01:01:00.646Z,19.80
2018-03-16T01:03:26.801Z,18.67
2018-03-16T01:05:52.964Z,19.87
2018-03-16T01:08:19.012Z,21.77
2018-03-16T01:10:45.970Z,22.07
2018-03-16T01:13:12.797Z,21.63
2018-03-16T01:15:39.743Z,21.53
2018-03-16T01:18:05.925Z,23.03
2018-03-16T01:20:39.062Z,22.10
2018-03-16T01:23:06.211Z,24.63
2018-03-16T01:25:32.339Z,21.23
2018-03-16T01:27:58.876Z,21.50
2018-03-16T01:30:24.999Z,21.87
2018-03-16T01:32:51.070Z,22.63
2018-03-16T01:35:17.265Z,23.80
2018-03-16T01:37:43.369Z,22.70
2018-03-16T01:40:09.474Z,25.50
2018-03-16T01:42:35.945Z,21.90
2018-03-16T01:45:03.780Z,22.33
2018-03-16T01:47:29.910Z,21.67
2018-03-16T01:49:56.449Z,23.03
2018-03-16T01:52:22.537Z,23.63
2018-03-16T01:54:48.797Z,21.57
2018-03-16T01:57:14.950Z,23.13
2018-03-16T01:59:42.227Z,23.27
2018-03-16T02:02:09.061Z,22.77
2018-03-16T02:04:35.962Z,23.43
2018-03-16T02:07:02.095Z,24.23
2018-03-16T02:09:28.760Z,25.70
2018-03-16T02:11:55.316Z,25.27
2018-03-16T02:14:21.493Z,28.07
2018-03-16T02:16:47.724Z,24.77
2018-03-16T02:19:14.826Z,25.30
2018-03-16T02:21:41.138Z,25.30
2018-03-16T02:24:07.255Z,23.30
2018-03-16T02:26:35.953Z,23.70
2018-03-16T02:29:02.672Z,22.50
2018-03-16T02:31:28.997Z,22.07
2018-03-16T02:33:55.247Z,22.27
2018-03-16T02:36:23.128Z,22.67
2018-03-16T02:38:49.335Z,23.30
2018-03-16T02:41:15.462Z,23.53
2018-03-16T02:43:42.603Z,23.83
2018-03-16T02:46:08.711Z,22.70
2018-03-16T02:48:34.841Z,25.27
2018-03-16T02:51:01.203Z,23.33
2018-03-16T02:53:27.710Z,22.63
2018-03-16T02:55:53.984Z,21.67
2018-03-16T02:58:20.881Z,21.90
2018-03-16T03:00:46.959Z,23.60
2018-03-16T03:03:13.041Z,22.50
2018-03-16T03:05:39.231Z,22.27
2018-03-16T03:08:06.260Z,25.30
2018-03-16T03:10:32.368Z,24.37
2018-03-16T03:12:58.630Z,25.30
2018-03-16T03:15:25.312Z,26.87
2018-03-16T03:17:51.479Z,26.60
2018-03-16T03:20:17.580Z,23.90
2018-03-16T03:22:43.774Z,24.20
2018-03-16T03:25:09.904Z,27.70
2018-03-16T03:27:36.067Z,27.20
2018-03-16T03:30:02.245Z,27.23
2018-03-16T03:32:28.521Z,25.83
2018-03-16T03:34:54.736Z,29.07
2018-03-16T03:37:22.442Z,29.27
2018-03-16T03:39:48.604Z,28.63
2018-03-16T03:42:14.745Z,30.33
2018-03-16T03:44:41.597Z,30.70
2018-03-16T03:47:07.655Z,30.87
2018-03-16T03:49:34.078Z,29.20
2018-03-16T03:52:00.247Z,30.83
2018-03-16T03:54:26.858Z,31.10
2018-03-16T03:56:52.918Z,28.10
2018-03-16T03:59:19.077Z,30.57
2018-03-16T04:01:46.306Z,29.67
2018-03-16T04:04:13.161Z,27.77
2018-03-16T04:06:39.289Z,29.00
2018-03-16T04:09:05.478Z,28.90
2018-03-16T04:11:31.537Z,27.60
2018-03-16T04:13:58.526Z,29.00
2018-03-16T04:16:24.663Z,29.37
2018-03-16T04:18:51.180Z,30.67
2018-03-16T04:21:17.310Z,29.33
2018-03-16T04:23:43.660Z,28.47
2018-03-16T04:26:10.031Z,28.73
2018-03-16T04:28:36.109Z,27.90
2018-03-16T04:31:02.328Z,27.87
2018-03-16T04:33:29.311Z,28.73
2018-03-16T04:35:55.717Z,27.97
2018-03-16T04:38:21.822Z,28.60
2018-03-16T04:40:47.866Z,28.20
2018-03-16T04:43:14.688Z,25.40
2018-03-16T04:45:40.866Z,27.87
2018-03-16T04:48:07.014Z,28.27
2018-03-16T04:50:33.119Z,27.30
2018-03-16T04:52:59.906Z,28.50
2018-03-16T04:55:26.139Z,28.43
2018-03-16T04:57:52.229Z,26.47
2018-03-16T05:00:18.327Z,27.03
2018-03-16T05:02:44.493Z,25.80
2018-03-16T05:05:10.562Z,25.97
2018-03-16T05:07:37.311Z,27.53
2018-03-16T05:10:03.429Z,26.50
2018-03-16T05:12:30.245Z,25.83
2018-03-16T05:14:57.181Z,26.43
2018-03-16T05:17:23.485Z,27.70
2018-03-16T05:19:49.594Z,25.33
2018-03-16T05:22:15.714Z,28.87
2018-03-16T05:24:41.901Z,25.10
2018-03-16T05:27:08.009Z,28.17
2018-03-16T05:29:35.819Z,31.60
2018-03-16T05:32:01.909Z,25.97
2018-03-16T05:34:28.514Z,25.33
2018-03-16T05:36:54.583Z,31.40
2018-03-16T05:39:20.695Z,27.83
2018-03-16T05:41:47.318Z,23.97
2018-03-16T05:44:13.361Z,26.30
2018-03-16T05:46:39.646Z,25.03
2018-03-16T05:49:05.830Z,25.77
2018-03-16T05:51:31.860Z,25.67
2018-03-16T05:53:57.960Z,32.07
2018-03-16T05:56:24.275Z,22.87
2018-03-16T05:58:50.468Z,22.97
2018-03-16T06:01:16.629Z,23.17
2018-03-16T06:03:43.210Z,22.57
2018-03-16T06:06:10.112Z,23.63
2018-03-16T06:08:36.167Z,23.40
2018-03-16T06:11:02.370Z,23.17
2018-03-16T06:13:28.438Z,21.23
2018-03-16T06:15:54.620Z,24.03
2018-03-16T06:18:20.698Z,22.93
2018-03-16T06:20:47.567Z,21.50
2018-03-16T06:23:14.838Z,24.23
2018-03-16T06:25:41.651Z,23.67
2018-03-16T06:28:07.747Z,23.80
2018-03-16T06:30:34.805Z,22.87
2018-03-16T06:33:00.915Z,23.17
2018-03-16T06:35:26.995Z,22.40
2018-03-16T06:37:53.077Z,21.40
2018-03-16T06:40:19.195Z,21.20
2018-03-16T06:42:45.298Z,22.87
2018-03-16T06:45:13.103Z,23.70
2018-03-16T06:47:39.315Z,22.77
2018-03-16T06:50:05.510Z,23.53
2018-03-16T06:52:32.389Z,22.40
2018-03-16T06:54:59.239Z,22.60
2018-03-16T06:57:26.785Z,22.90
2018-03-16T06:59:53.483Z,22.97
2018-03-16T07:02:19.871Z,24.97
2018-03-16T07:04:46.051Z,22.60
2018-03-16T07:07:12.263Z,22.83
2018-03-16T07:09:39.174Z,22.50
2018-03-16T07:12:05.595Z,22.17
2018-03-16T07:14:31.639Z,20.87
2018-03-16T07:16:58.398Z,22.23
2018-03-16T07:19:24.600Z,20.47
2018-03-16T07:21:52.574Z,23.23
2018-03-16T07:24:18.812Z,21.57
2018-03-16T07:26:45.804Z,20.93
2018-03-16T07:29:12.027Z,21.30
2018-03-16T07:31:38.256Z,19.87
2018-03-16T07:34:07.616Z,21.50
2018-03-16T07:36:34.650Z,20.33
2018-03-16T07:39:01.183Z,21.20
2018-03-16T07:41:28.128Z,26.20
2018-03-16T07:43:54.976Z,22.60
2018-03-16T07:46:21.203Z,22.40
2018-03-16T07:48:48.568Z,21.23
2018-03-16T07:51:16.492Z,21.10
2018-03-16T07:53:42.630Z,21.40
2018-03-16T07:56:08.859Z,20.23
2018-03-16T07:58:35.061Z,21.20
2018-03-16T08:01:03.142Z,21.50
2018-03-16T08:03:29.391Z,20.20
2018-03-16T08:05:56.307Z,21.27
2018-03-16T08:08:22.790Z,22.20
2018-03-16T08:10:49.515Z,20.63
2018-03-16T08:13:15.693Z,20.47
2018-03-16T08:15:41.851Z,19.90
2018-03-16T08:18:08.810Z,20.17
2018-03-16T08:20:35.479Z,19.60
2018-03-16T08:23:01.607Z,21.43
2018-03-16T08:25:27.818Z,20.57
2018-03-16T08:27:54.687Z,21.70
2018-03-16T08:30:21.207Z,22.37
2018-03-16T08:32:47.371Z,22.53
2018-03-16T08:35:13.555Z,23.17
2018-03-16T08:37:40.392Z,22.10
2018-03-16T08:40:06.884Z,20.77
2018-03-16T08:42:33.184Z,22.00
2018-03-16T08:45:01.130Z,23.67
2018-03-16T08:47:27.280Z,22.23
2018-03-16T08:49:54.135Z,22.67
2018-03-16T08:52:23.508Z,22.03
2018-03-16T08:54:49.606Z,21.80
2018-03-16T08:57:16.691Z,22.10
2018-03-16T08:59:43.529Z,21.00
2018-03-16T09:02:09.966Z,23.13
2018-03-16T09:04:37.278Z,21.93
2018-03-16T09:07:04.165Z,22.30
2018-03-16T09:09:30.233Z,24.37
2018-03-16T09:11:57.006Z,22.00
2018-03-16T09:14:23.265Z,21.70
2018-03-16T09:16:49.447Z,21.30
2018-03-16T09:19:15.948Z,21.70
2018-03-16T09:21:42.432Z,22.57
2018-03-16T09:24:08.739Z,23.50
2018-03-16T09:26:34.845Z,20.50
2018-03-16T09:29:00.975Z,21.57
2018-03-16T09:31:27.234Z,23.27
2018-03-16T09:33:54.669Z,22.10
2018-03-16T09:36:20.881Z,20.80
2018-03-16T09:38:47.901Z,21.07
2018-03-16T09:41:14.864Z,22.10
2018-03-16T09:43:41.014Z,21.10
2018-03-16T09:46:07.963Z,24.17
2018-03-16T09:48:35.523Z,23.13
2018-03-16T09:51:01.593Z,20.80
2018-03-16T09:53:28.765Z,20.60
2018-03-16T09:55:55.096Z,20.20
2018-03-16T09:58:22.016Z,19.60
2018-03-16T10:00:48.394Z,17.60
2018-03-16T10:03:14.792Z,18.93
2018-03-16T10:05:43.484Z,19.20
2018-03-16T10:08:09.728Z,18.27
2018-03-16T10:10:36.125Z,17.97
2018-03-16T10:13:03.066Z,17.07
2018-03-16T10:15:30.476Z,17.90
2018-03-16T10:17:56.544Z,16.00
2018-03-16T10:20:22.637Z,16.97
2018-03-16T10:22:48.910Z,19.07
2018-03-16T10:25:14.967Z,18.07
2018-03-16T10:27:42.280Z,18.47
2018-03-16T10:30:08.346Z,17.27
2018-03-16T10:32:35.048Z,16.77
2018-03-16T10:35:02.060Z,17.43
2018-03-16T10:37:29.321Z,17.03
2018-03-16T10:39:56.776Z,17.27
2018-03-16T10:42:22.935Z,17.83
2018-03-16T10:44:49.271Z,17.50
2018-03-16T10:47:16.735Z,18.10
2018-03-16T10:49:42.902Z,17.13
2018-03-16T10:52:09.049Z,15.90
2018-03-16T10:54:35.160Z,18.57
2018-03-16T10:57:03.292Z,15.43
2018-03-16T10:59:30.180Z,16.83
2018-03-16T11:01:56.677Z,15.43
2018-03-16T11:04:28.633Z,15.67
2018-03-16T11:07:00.741Z,15.57
2018-03-16T11:09:26.959Z,17.23
2018-03-16T11:11:53.121Z,15.90
2018-03-16T11:14:20.332Z,15.70
2018-03-16T11:16:47.828Z,15.50
2018-03-16T11:19:13.988Z,14.37
2018-03-16T11:21:40.597Z,15.03
2018-03-16T11:24:08.334Z,16.37
2018-03-16T11:26:34.438Z,14.57
2018-03-16T11:29:00.973Z,17.00
2018-03-16T11:31:27.463Z,13.17
2018-03-16T11:33:55.640Z,13.13
2018-03-16T11:36:23.573Z,13.57
2018-03-16T11:38:49.884Z,12.53
2018-03-16T11:41:16.406Z,14.33
2018-03-16T11:43:42.446Z,14.17
2018-03-16T11:46:11.053Z,13.60
2018-03-16T11:48:37.169Z,13.10
2018-03-16T11:51:03.631Z,14.40
2018-03-16T11:53:29.761Z,13.30
2018-03-16T11:55:56.617Z,12.17
2018-03-16T11:58:22.776Z,13.50
2018-03-16T12:00:49.107Z,11.83
2018-03-16T12:03:16.524Z,12.13
2018-03-16T12:05:43.459Z,11.60
2018-03-16T12:08:09.723Z,13.13
2018-03-16T12:10:36.904Z,12.20
2018-03-16T12:13:03.166Z,10.80
2018-03-16T12:15:29.628Z,10.07
2018-03-16T12:17:55.769Z,10.70
2018-03-16T12:20:22.693Z,10.43
2018-03-16T12:22:49.747Z,10.60
2018-03-16T12:25:16.952Z,11.07
2018-03-16T12:27:43.057Z,10.90
2018-03-16T12:30:09.242Z,11.13
2018-03-16T12:32:38.637Z,10.37
2018-03-16T12:35:05.955Z,10.57
2018-03-16T12:37:32.165Z,8.80
2018-03-16T12:39:58.311Z,9.33
2018-03-16T12:42:25.155Z,8.53
2018-03-16T12:44:51.321Z,9.03
2018-03-16T12:47:17.669Z,8.70
2018-03-16T12:49:43.760Z,8.27
2018-03-16T12:52:10.446Z,8.83
2018-03-16T12:54:37.305Z,7.10
2018-03-16T12:57:04.111Z,7.53
2018-03-16T12:59:30.209Z,8.67
2018-03-16T13:01:59.083Z,8.30
2018-03-16T13:04:25.875Z,10.27
2018-03-16T13:06:52.071Z,11.63
2018-03-16T13:09:19.581Z,17.30
2018-03-16T13:11:46.159Z,15.83
2018-03-16T13:14:13.581Z,16.23
2018-03-16T13:16:39.796Z,14.50
2018-03-16T13:19:05.925Z,14.93
2018-03-16T13:21:32.149Z,16.40
2018-03-16T13:23:58.976Z,14.30
2018-03-16T13:26:27.683Z,15.97
2018-03-16T13:28:53.902Z,14.23
2018-03-16T13:31:20.187Z,14.03
2018-03-16T13:33:46.477Z,16.50
2018-03-16T13:36:12.524Z,15.43
2018-03-16T13:38:38.878Z,17.43
2018-03-16T13:41:05.798Z,14.83
2018-03-16T13:43:32.672Z,15.13
2018-03-16T13:45:58.996Z,14.70
2018-03-16T13:48:25.869Z,14.07
2018-03-16T13:50:52.239Z,16.90
2018-03-16T13:53:19.135Z,14.40
2018-03-16T13:55:45.294Z,14.53
2018-03-16T13:58:11.472Z,13.83
2018-03-16T14:00:38.522Z,15.23
2018-03-16T14:03:04.648Z,13.07
2018-03-16T14:05:30.874Z,14.70
2018-03-16T14:07:57.872Z,15.20
2018-03-16T14:10:24.153Z,13.80
2018-03-16T14:12:52.033Z,13.97
2018-03-16T14:15:19.327Z,14.47
2018-03-16T14:17:45.612Z,14.87
2018-03-16T14:20:12.455Z,13.93
2018-03-16T14:22:38.519Z,16.47
2018-03-16T14:25:05.518Z,14.40
2018-03-16T14:27:31.690Z,12.20
2018-03-16T14:29:57.921Z,11.77
2018-03-16T14:32:24.046Z,12.53
2018-03-16T14:34:50.124Z,13.40
2018-03-16T14:37:17.297Z,12.77
2018-03-16T14:39:44.335Z,13.40
2018-03-16T14:42:11.954Z,13.70
2018-03-16T14:44:38.189Z,13.80
2018-03-16T14:47:04.401Z,13.90
2018-03-16T14:49:31.882Z,13.60
2018-03-16T14:51:58.954Z,12.93
2018-03-16T14:54:26.016Z,12.47
2018-03-16T14:56:52.684Z,12.90
2018-03-16T14:59:19.009Z,13.03
2018-03-16T15:01:46.605Z,12.07
2018-03-16T15:04:13.334Z,12.17
2018-03-16T15:06:39.615Z,12.50
2018-03-16T15:09:05.861Z,13.20
2018-03-16T15:11:32.801Z,13.80
2018-03-16T15:13:59.399Z,13.20
2018-03-16T15:16:25.698Z,12.97
2018-03-16T15:18:52.230Z,13.40
2018-03-16T15:21:19.240Z,13.20
2018-03-16T15:23:46.430Z,12.27
2018-03-16T15:26:12.628Z,12.07
2018-03-16T15:28:38.866Z,11.50
2018-03-16T15:31:05.063Z,13.60
2018-03-16T15:33:31.544Z,13.30
2018-03-16T15:35:57.794Z,13.83
2018-03-16T15:38:25.398Z,12.90
2018-03-16T15:40:51.553Z,14.13
2018-03-16T15:43:18.280Z,14.70
2018-03-16T15:45:45.194Z,13.97
2018-03-16T15:48:12.200Z,14.80
2018-03-16T15:50:38.354Z,14.13
2018-03-16T15:53:04.739Z,14.87
2018-03-16T15:55:31.873Z,13.60
2018-03-16T15:57:58.870Z,13.73
2018-03-16T16:00:25.144Z,14.93
2018-03-16T16:02:51.272Z,16.00
2018-03-16T16:05:17.541Z,14.17
2018-03-16T16:07:45.072Z,15.17
2018-03-16T16:10:11.347Z,14.20
2018-03-16T16:12:37.633Z,14.93
2018-03-16T16:15:04.023Z,14.37
2018-03-16T16:17:31.165Z,17.63
2018-03-16T16:20:00.368Z,13.40
2018-03-16T16:22:30.367Z,15.53
2018-03-16T16:24:56.702Z,14.80
2018-03-16T16:27:22.899Z,14.97
2018-03-16T16:29:50.876Z,15.07
2018-03-16T16:32:17.179Z,13.23
2018-03-16T16:34:43.799Z,12.87
2018-03-16T16:37:11.010Z,12.57
2018-03-16T16:39:37.166Z,13.87
2018-03-16T16:42:03.767Z,20.30
2018-03-16T16:44:29.949Z,12.73
2018-03-16T16:46:57.216Z,23.47
2018-03-16T16:49:23.480Z,15.10
2018-03-16T16:51:50.438Z,13.73
2018-03-16T16:54:17.490Z,12.80
2018-03-16T16:56:44.695Z,19.80
2018-03-16T16:59:10.821Z,13.57
2018-03-16T17:01:39.636Z,17.73
2018-03-16T17:04:06.757Z,14.43
2018-03-16T17:06:33.041Z,14.00
2018-03-16T17:08:59.912Z,13.87
2018-03-16T17:11:26.066Z,13.77
2018-03-16T17:13:52.602Z,15.87
2018-03-16T17:16:19.846Z,14.30
2018-03-16T17:18:47.063Z,18.30
2018-03-16T17:21:13.298Z,12.93
2018-03-16T17:23:39.739Z,11.67
2018-03-16T17:26:05.968Z,11.70
2018-03-16T17:28:32.237Z,12.83
2018-03-16T17:30:58.739Z,12.63
2018-03-16T17:33:24.890Z,13.40
2018-03-16T17:35:52.326Z,13.13
2018-03-16T17:38:18.535Z,14.33
2018-03-16T17:40:44.672Z,15.50
2018-03-16T17:43:10.856Z,13.63
2018-03-16T17:45:37.194Z,12.73
2018-03-16T17:48:03.972Z,12.77
2018-03-16T17:50:30.042Z,10.97
2018-03-16T17:52:56.977Z,9.67
2018-03-16T17:55:23.194Z,9.30
2018-03-16T17:57:49.885Z,9.80
2018-03-16T18:00:17.731Z,10.23
2018-03-16T18:02:43.849Z,9.07
2018-03-16T18:05:10.575Z,10.07
2018-03-16T18:07:37.516Z,9.30
2018-03-16T18:10:04.221Z,9.87
2018-03-16T18:12:30.376Z,10.07
2018-03-16T18:14:57.388Z,14.30
2018-03-16T18:17:24.698Z,10.63
2018-03-16T18:19:51.216Z,9.23
2018-03-16T18:22:17.645Z,9.60
2018-03-16T18:24:44.551Z,10.10
2018-03-16T18:27:10.608Z,9.80
2018-03-16T18:29:37.671Z,10.60
2018-03-16T18:32:03.786Z,9.30
2018-03-16T18:34:30.739Z,8.50
2018-03-16T18:36:57.462Z,10.30
2018-03-16T18:39:24.455Z,7.57
2018-03-16T18:41:51.610Z,7.30
2018-03-16T18:44:17.930Z,9.03
2018-03-16T18:46:44.016Z,8.13
2018-03-16T18:49:10.103Z,8.60
2018-03-16T18:51:37.555Z,8.93
2018-03-16T18:54:04.450Z,8.47
2018-03-16T18:56:30.576Z,8.47
2018-03-16T18:58:56.671Z,7.80
2018-03-16T19:01:23.522Z,8.87
2018-03-16T19:03:49.645Z,9.30
2018-03-16T19:06:16.622Z,9.07
2018-03-16T19:08:43.451Z,9.43
2018-03-16T19:11:10.354Z,8.53
2018-03-16T19:13:36.537Z,9.80
2018-03-16T19:16:03.418Z,9.07
2018-03-16T19:18:29.469Z,9.43
2018-03-16T19:20:55.629Z,9.17
2018-03-16T19:23:22.630Z,9.67
2018-03-16T19:25:49.099Z,9.90
2018-03-16T19:28:15.163Z,9.90
2018-03-16T19:30:41.246Z,10.83
2018-03-16T19:33:07.342Z,10.97
2018-03-16T19:35:33.489Z,10.70
2018-03-16T19:38:00.546Z,11.77
2018-03-16T19:40:26.742Z,10.20
2018-03-16T19:42:55.085Z,10.63
2018-03-16T19:45:28.016Z,10.53
2018-03-16T19:47:54.120Z,11.73
2018-03-16T19:50:21.643Z,11.20
2018-03-16T19:52:47.834Z,10.45
2018-03-16T19:55:14.105Z,10.47
2018-03-16T19:57:40.583Z,10.48
2018-03-16T20:00:06.660Z,10.60
2018-03-16T20:02:34.872Z,11.07
2018-03-16T20:05:01.050Z,10.33
2018-03-16T20:07:27.195Z,11.33
2018-03-16T20:09:53.472Z,10.37
2018-03-16T20:12:19.569Z,10.50
2018-03-16T20:14:45.790Z,11.80
2018-03-16T20:17:12.221Z,11.70
2018-03-16T20:19:43.947Z,11.35
2018-03-16T20:22:10.286Z,11.73
2018-03-16T20:24:38.611Z,12.05
2018-03-16T20:27:05.404Z,12.07
2018-03-16T20:29:31.607Z,13.57
2018-03-16T20:31:57.692Z,12.00
2018-03-16T20:34:24.134Z,12.63
2018-03-16T20:36:50.280Z,12.05
2018-03-16T20:39:17.475Z,13.32
2018-03-16T20:41:43.534Z,13.68
2018-03-16T20:44:10.515Z,13.55
2018-03-16T20:46:36.704Z,12.73
2018-03-16T20:49:04.052Z,13.38
2018-03-16T20:51:30.241Z,13.62
2018-03-16T20:53:57.646Z,15.20
2018-03-16T20:56:23.833Z,15.07
2018-03-16T20:58:50.069Z,15.32
2018-03-16T21:01:16.290Z,15.98
2018-03-16T21:03:43.268Z,14.50
2018-03-16T21:06:09.430Z,14.45
2018-03-16T21:08:35.613Z,15.05
2018-03-16T21:11:01.716Z,16.30
2018-03-16T21:13:27.860Z,15.98
2018-03-16T21:15:53.909Z,15.85
2018-03-16T21:18:21.030Z,17.33
2018-03-16T21:20:47.249Z,16.30
2018-03-16T21:23:13.363Z,16.92
2018-03-16T21:25:39.437Z,18.08
2018-03-16T21:28:08.538Z,17.17
2018-03-16T21:30:36.565Z,17.02
2018-03-16T21:33:02.948Z,17.12
2018-03-16T21:35:30.957Z,17.08
2018-03-16T21:37:57.105Z,18.08
2018-03-16T21:40:23.216Z,17.08
2018-03-16T21:42:56.868Z,18.75
2018-03-16T21:45:24.514Z,17.62
2018-03-16T21:47:50.928Z,18.27
2018-03-16T21:50:17.208Z,17.30
2018-03-16T21:52:43.368Z,17.10
2018-03-16T21:55:13.972Z,18.30
2018-03-16T21:57:40.115Z,16.92
2018-03-16T22:00:06.936Z,18.98
2018-03-16T22:02:33.030Z,18.35
2018-03-16T22:05:01.422Z,17.90
2018-03-16T22:07:27.517Z,17.65
2018-03-16T22:09:53.625Z,17.92
2018-03-16T22:12:19.846Z,17.75
2018-03-16T22:14:46.089Z,19.92
2018-03-16T22:17:12.213Z,19.62
2018-03-16T22:19:39.904Z,20.15
2018-03-16T22:22:06.003Z,20.90
2018-03-16T22:24:32.782Z,19.92
2018-03-16T22:26:58.922Z,21.17
2018-03-16T22:29:25.022Z,21.05
2018-03-16T22:31:53.036Z,20.25
2018-03-16T22:34:19.176Z,20.45
2018-03-16T22:36:45.304Z,19.12
2018-03-16T22:39:11.429Z,20.20
2018-03-16T22:41:38.427Z,20.33
2018-03-16T22:44:05.274Z,22.20
2018-03-16T22:46:33.829Z,20.60
2018-03-16T22:49:01.645Z,20.37
2018-03-16T22:51:27.794Z,19.87
2018-03-16T22:53:53.966Z,19.12
2018-03-16T22:56:20.224Z,20.55
2018-03-16T22:58:47.051Z,19.62
2018-03-16T23:01:13.198Z,20.85
2018-03-16T23:03:40.445Z,19.45
2018-03-16T23:06:06.569Z,20.25
2018-03-16T23:08:32.711Z,21.90
2018-03-16T23:10:59.751Z,21.50
2018-03-16T23:13:26.663Z,21.30
2018-03-16T23:15:53.253Z,20.95
2018-03-16T23:18:19.440Z,20.20
2018-03-16T23:20:46.026Z,19.70
2018-03-16T23:23:12.459Z,22.15
2018-03-16T23:25:38.736Z,19.90
2018-03-16T23:28:05.037Z,19.15
2018-03-16T23:30:32.554Z,20.40
2018-03-16T23:32:58.603Z,21.40
2018-03-16T23:35:24.657Z,18.67
2018-03-16T23:37:50.718Z,19.55
2018-03-16T23:40:17.709Z,20.02
2018-03-16T23:42:43.900Z,21.42
2018-03-16T23:45:10.728Z,20.23
2018-03-16T23:47:36.860Z,19.10
2018-03-16T23:50:03.136Z,19.10
2018-03-16T23:52:29.216Z,19.90
2018-03-16T23:54:56.263Z,19.85
2018-03-16T23:57:22.429Z,18.05
2018-03-16T23:59:49.319Z,19.25
